sensor_id;sensor_type;location;lat;lon;timestamp;pressure;altitude;pressure_sealevel;temperature;humidity
49341;BME280;35209;51.050;13.678;2023-09-19T00:00:56;152874.31;;;16.64;100.00
49341;BME280;35209;51.050;13.678;2023-09-19T00:05:58;152821.13;;;16.44;100.00
49341;BME280;35209;51.050;13.678;2023-09-19T00:11:00;152825.00;;;16.45;100.00
49341;BME280;35209;51.050;13.678;2023-09-19T00:16:11;152843.19;;;16.52;100.00
49341;BME280;35209;51.050;13.678;2023-09-19T00:21:13;152910.66;;;16.79;100.00
49341;BME280;35209;51.050;13.678;2023-09-19T00:26:16;152918.41;;;16.82;100.00
49341;BME280;35209;51.050;13.678;2023-09-19T00:31:22;152847.03;;;16.54;100.00
49341;BME280;35209;51.050;13.678;2023-09-19T00:36:25;152830.22;;;16.47;100.00
49341;BME280;35209;51.050;13.678;2023-09-19T00:41:26;152783.50;;;16.29;100.00
49341;BME280;35209;51.050;13.678;2023-09-19T00:46:31;152770.53;;;16.24;100.00
49341;BME280;35209;51.050;13.678;2023-09-19T00:51:34;152767.97;;;16.23;100.00
49341;BME280;35209;51.050;13.678;2023-09-19T00:56:37;152879.47;;;16.67;100.00
49341;BME280;35209;51.050;13.678;2023-09-19T01:01:41;152892.44;;;16.72;100.00
49341;BME280;35209;51.050;13.678;2023-09-19T01:06:47;152834.09;;;16.49;100.00
49341;BME280;35209;51.050;13.678;2023-09-19T01:12:01;152761.44;;;16.20;100.00
49341;BME280;35209;51.050;13.678;2023-09-19T01:17:20;152731.66;;;16.08;100.00
49341;BME280;35209;51.050;13.678;2023-09-19T01:22:53;152718.72;;;16.03;100.00
49341;BME280;35209;51.050;13.678;2023-09-19T01:28:32;152734.25;;;16.09;100.00
49341;BME280;35209;51.050;13.678;2023-09-19T01:34:01;152727.75;;;16.07;100.00
49341;BME280;35209;51.050;13.678;2023-09-19T01:39:06;152874.31;;;16.64;100.00
49341;BME280;35209;51.050;13.678;2023-09-19T01:44:15;152862.59;;;16.60;100.00
49341;BME280;35209;51.050;13.678;2023-09-19T01:55:09;152748.50;;;16.15;100.00
49341;BME280;35209;51.050;13.678;2023-09-19T02:00:12;152718.72;;;16.03;100.00
49341;BME280;35209;51.050;13.678;2023-09-19T02:05:22;152760.16;;;16.20;100.00
49341;BME280;35209;51.050;13.678;2023-09-19T02:10:26;152775.75;;;16.26;100.00
49341;BME280;35209;51.050;13.678;2023-09-19T02:15:27;152760.16;;;16.20;100.00
49341;BME280;35209;51.050;13.678;2023-09-19T02:20:29;152760.16;;;16.20;100.00
49341;BME280;35209;51.050;13.678;2023-09-19T02:25:32;152765.38;;;16.22;100.00
49341;BME280;35209;51.050;13.678;2023-09-19T02:30:35;152760.16;;;16.20;100.00
49341;BME280;35209;51.050;13.678;2023-09-19T02:35:37;152805.53;;;16.37;100.00
49341;BME280;35209;51.050;13.678;2023-09-19T02:40:39;152827.59;;;16.46;100.00
49341;BME280;35209;51.050;13.678;2023-09-19T02:45:41;152843.19;;;16.52;100.00
49341;BME280;35209;51.050;13.678;2023-09-19T02:50:43;152857.44;;;16.58;100.00
49341;BME280;35209;51.050;13.678;2023-09-19T02:55:46;152845.75;;;16.53;100.00
49341;BME280;35209;51.050;13.678;2023-09-19T03:00:49;152853.56;;;16.56;100.00
49341;BME280;35209;51.050;13.678;2023-09-19T03:05:53;152883.34;;;16.68;100.00
49341;BME280;35209;51.050;13.678;2023-09-19T03:10:56;152975.47;;;17.04;100.00
49341;BME280;35209;51.050;13.678;2023-09-19T03:15:58;153010.56;;;17.18;100.00
49341;BME280;35209;51.050;13.678;2023-09-19T03:21:02;152980.69;;;17.06;100.00
49341;BME280;35209;51.050;13.678;2023-09-19T03:26:04;152976.81;;;17.05;100.00
49341;BME280;35209;51.050;13.678;2023-09-19T03:31:07;153039.06;;;17.29;100.00
49341;BME280;35209;51.050;13.678;2023-09-19T03:36:10;153042.94;;;17.31;100.00
49341;BME280;35209;51.050;13.678;2023-09-19T03:41:14;153067.63;;;17.40;100.00
49341;BME280;35209;51.050;13.678;2023-09-19T03:46:20;153078.03;;;17.45;98.85
49341;BME280;35209;51.050;13.678;2023-09-19T03:51:23;153098.75;;;17.53;98.69
49341;BME280;35209;51.050;13.678;2023-09-19T03:56:24;153087.06;;;17.48;99.26
49341;BME280;35209;51.050;13.678;2023-09-19T04:01:26;153057.25;;;17.36;100.00
49341;BME280;35209;51.050;13.678;2023-09-19T04:06:29;153087.06;;;17.48;96.69
49341;BME280;35209;51.050;13.678;2023-09-19T04:11:32;153113.06;;;17.58;95.55
49341;BME280;35209;51.050;13.678;2023-09-19T04:16:34;153113.06;;;17.58;94.92
49341;BME280;35209;51.050;13.678;2023-09-19T04:21:37;153120.81;;;17.61;94.67
49341;BME280;35209;51.050;13.678;2023-09-19T04:26:39;153111.75;;;17.58;95.15
49341;BME280;35209;51.050;13.678;2023-09-19T04:31:41;153101.38;;;17.54;95.64
49341;BME280;35209;51.050;13.678;2023-09-19T04:36:45;153061.13;;;17.38;96.91
49341;BME280;35209;51.050;13.678;2023-09-19T04:41:47;153088.41;;;17.49;94.90
49341;BME280;35209;51.050;13.678;2023-09-19T04:46:49;153039.06;;;17.29;97.41
49341;BME280;35209;51.050;13.678;2023-09-19T04:51:52;153071.50;;;17.42;95.40
49341;BME280;35209;51.050;13.678;2023-09-19T04:56:55;153096.16;;;17.52;94.02
49341;BME280;35209;51.050;13.678;2023-09-19T05:01:57;153101.38;;;17.54;93.23
49341;BME280;35209;51.050;13.678;2023-09-19T05:06:59;153096.16;;;17.52;93.49
49341;BME280;35209;51.050;13.678;2023-09-19T05:12:03;153085.78;;;17.48;93.75
49341;BME280;35209;51.050;13.678;2023-09-19T05:17:04;153076.69;;;17.44;93.42
49341;BME280;35209;51.050;13.678;2023-09-19T05:22:06;153105.25;;;17.55;92.85
49341;BME280;35209;51.050;13.678;2023-09-19T05:27:08;153122.16;;;17.62;91.75
49341;BME280;35209;51.050;13.678;2023-09-19T05:32:13;153092.28;;;17.50;92.86
49341;BME280;35209;51.050;13.678;2023-09-19T05:37:15;153102.66;;;17.54;92.19
49341;BME280;35209;51.050;13.678;2023-09-19T05:42:17;153081.91;;;17.46;92.86
49341;BME280;35209;51.050;13.678;2023-09-19T05:47:19;153123.44;;;17.62;91.67
49341;BME280;35209;51.050;13.678;2023-09-19T05:52:21;153110.41;;;17.57;91.37
49341;BME280;35209;51.050;13.678;2023-09-19T05:57:23;153124.72;;;17.63;90.93
49341;BME280;35209;51.050;13.678;2023-09-19T06:02:26;153103.97;;;17.55;92.62
49341;BME280;35209;51.050;13.678;2023-09-19T06:07:30;153136.41;;;17.68;90.99
49341;BME280;35209;51.050;13.678;2023-09-19T06:12:44;153129.91;;;17.65;92.13
49341;BME280;35209;51.050;13.678;2023-09-19T06:17:50;153140.28;;;17.69;92.18
49341;BME280;35209;51.050;13.678;2023-09-19T06:22:52;153162.41;;;17.78;89.93
49341;BME280;35209;51.050;13.678;2023-09-19T06:27:54;153170.19;;;17.81;89.00
49341;BME280;35209;51.050;13.678;2023-09-19T06:32:58;153189.69;;;17.88;87.60
49341;BME280;35209;51.050;13.678;2023-09-19T06:38:04;153179.31;;;17.84;88.59
49341;BME280;35209;51.050;13.678;2023-09-19T06:43:07;153200.03;;;17.93;88.10
49341;BME280;35209;51.050;13.678;2023-09-19T06:48:10;153255.84;;;18.14;86.30
49341;BME280;35209;51.050;13.678;2023-09-19T06:53:12;153283.13;;;18.25;85.43
49341;BME280;35209;51.050;13.678;2023-09-19T06:58:14;153306.50;;;18.34;85.76
49341;BME280;35209;51.050;13.678;2023-09-19T07:03:18;153357.13;;;18.54;85.67
49341;BME280;35209;51.050;13.678;2023-09-19T07:08:22;153418.22;;;18.78;81.93
49341;BME280;35209;51.050;13.678;2023-09-19T07:13:24;153409.13;;;18.75;79.98
49341;BME280;35209;51.050;13.678;2023-09-19T07:18:27;153410.44;;;18.75;80.64
49341;BME280;35209;51.050;13.678;2023-09-19T07:23:28;153441.63;;;18.87;75.77
49341;BME280;35209;51.050;13.678;2023-09-19T07:28:31;153475.38;;;19.01;72.83
49341;BME280;35209;51.050;13.678;2023-09-19T07:33:34;153552.03;;;19.31;71.21
49341;BME280;35209;51.050;13.678;2023-09-19T07:38:36;153535.13;;;19.24;72.14
49341;BME280;35209;51.050;13.678;2023-09-19T07:43:37;153545.53;;;19.28;70.89
49341;BME280;35209;51.050;13.678;2023-09-19T07:48:42;153520.84;;;19.19;71.08
49341;BME280;35209;51.050;13.678;2023-09-19T07:53:49;153523.44;;;19.20;74.79
49341;BME280;35209;51.050;13.678;2023-09-19T07:58:51;153602.69;;;19.51;67.36
49341;BME280;35209;51.050;13.678;2023-09-19T08:03:53;153533.84;;;19.24;66.47
49341;BME280;35209;51.050;13.678;2023-09-19T08:08:55;153519.56;;;19.18;68.46
49341;BME280;35209;51.050;13.678;2023-09-19T08:13:58;153568.91;;;19.37;67.65
49341;BME280;35209;51.050;13.678;2023-09-19T08:19:00;153631.34;;;19.62;63.93
49341;BME280;35209;51.050;13.678;2023-09-19T08:24:02;153632.66;;;19.62;61.96
49341;BME280;35209;51.050;13.678;2023-09-19T08:29:05;153643.03;;;19.67;63.04
49341;BME280;35209;51.050;13.678;2023-09-19T08:34:11;153656.03;;;19.72;62.10
49341;BME280;35209;51.050;13.678;2023-09-19T08:39:13;153662.50;;;19.74;63.08
49341;BME280;35209;51.050;13.678;2023-09-19T08:44:16;153730.09;;;20.01;62.60
49341;BME280;35209;51.050;13.678;2023-09-19T08:49:24;153809.38;;;20.32;60.59
49341;BME280;35209;51.050;13.678;2023-09-19T08:54:37;153784.69;;;20.22;61.01
49341;BME280;35209;51.050;13.678;2023-09-19T08:59:43;153753.53;;;20.10;61.30
49341;BME280;35209;51.050;13.678;2023-09-19T09:04:49;153804.22;;;20.30;59.33
49341;BME280;35209;51.050;13.678;2023-09-19T09:09:51;153789.91;;;20.24;61.73
49341;BME280;35209;51.050;13.678;2023-09-19T09:14:53;153895.28;;;20.65;61.45
49341;BME280;35209;51.050;13.678;2023-09-19T09:19:55;153903.09;;;20.69;58.19
49341;BME280;35209;51.050;13.678;2023-09-19T09:24:57;153968.13;;;20.94;57.09
49341;BME280;35209;51.050;13.678;2023-09-19T09:29:59;153996.72;;;21.05;57.29
49341;BME280;35209;51.050;13.678;2023-09-19T09:35:03;153953.78;;;20.88;56.65
49341;BME280;35209;51.050;13.678;2023-09-19T09:40:11;153865.34;;;20.54;58.69
49341;BME280;35209;51.050;13.678;2023-09-19T09:45:22;153956.41;;;20.89;58.01
49341;BME280;35209;51.050;13.678;2023-09-19T09:50:46;154109.94;;;21.50;55.98
49341;BME280;35209;51.050;13.678;2023-09-19T09:56:05;154242.69;;;22.02;55.03
49341;BME280;35209;51.050;13.678;2023-09-19T10:01:07;154270.06;;;22.12;53.80
49341;BME280;35209;51.050;13.678;2023-09-19T10:06:17;154307.84;;;22.27;53.47
49341;BME280;35209;51.050;13.678;2023-09-19T10:11:25;154292.19;;;22.21;51.67
49341;BME280;35209;51.050;13.678;2023-09-19T10:16:32;154344.28;;;22.41;51.32
49341;BME280;35209;51.050;13.678;2023-09-19T10:21:36;154400.25;;;22.63;50.90
49341;BME280;35209;51.050;13.678;2023-09-19T10:26:41;154445.84;;;22.81;50.43
49341;BME280;35209;51.050;13.678;2023-09-19T10:31:47;154434.13;;;22.77;49.54
49341;BME280;35209;51.050;13.678;2023-09-19T10:36:51;154556.59;;;23.25;50.41
49341;BME280;35209;51.050;13.678;2023-09-19T10:41:55;154544.88;;;23.20;47.14
49341;BME280;35209;51.050;13.678;2023-09-19T10:47:01;154582.63;;;23.35;46.99
49341;BME280;35209;51.050;13.678;2023-09-19T10:52:05;154591.75;;;23.38;45.31
49341;BME280;35209;51.050;13.678;2023-09-19T10:57:09;154565.66;;;23.28;46.83
49341;BME280;35209;51.050;13.678;2023-09-19T11:02:17;154663.44;;;23.66;45.80
49341;BME280;35209;51.050;13.678;2023-09-19T11:07:20;154714.28;;;23.86;43.54
49341;BME280;35209;51.050;13.678;2023-09-19T11:17:42;154823.72;;;24.29;43.25
49341;BME280;35209;51.050;13.678;2023-09-19T11:33:23;154565.66;;;23.28;44.26
49341;BME280;35209;51.050;13.678;2023-09-19T11:43:44;154417.16;;;22.70;43.29
49341;BME280;35209;51.050;13.678;2023-09-19T11:48:47;154408.03;;;22.66;43.13
49341;BME280;35209;51.050;13.678;2023-09-19T11:53:51;154441.91;;;22.80;43.58
49341;BME280;35209;51.050;13.678;2023-09-19T11:58:55;154496.66;;;23.01;44.12
49341;BME280;35209;51.050;13.678;2023-09-19T12:04:00;154499.28;;;23.02;44.08
49341;BME280;35209;51.050;13.678;2023-09-19T12:09:03;154444.53;;;22.81;47.33
49341;BME280;35209;51.050;13.678;2023-09-19T12:14:09;154371.59;;;22.52;48.26
49341;BME280;35209;51.050;13.678;2023-09-19T12:19:19;154348.16;;;22.43;48.44
49341;BME280;35209;51.050;13.678;2023-09-19T12:24:26;154356.00;;;22.46;47.92
49341;BME280;35209;51.050;13.678;2023-09-19T12:29:41;154402.84;;;22.64;47.55
49341;BME280;35209;51.050;13.678;2023-09-19T12:34:50;154342.97;;;22.41;48.16
49341;BME280;35209;51.050;13.678;2023-09-19T12:40:04;154356.00;;;22.46;45.51
49341;BME280;35209;51.050;13.678;2023-09-19T12:45:16;154350.75;;;22.44;46.59
49341;BME280;35209;51.050;13.678;2023-09-19T12:50:20;154358.59;;;22.47;47.53
49341;BME280;35209;51.050;13.678;2023-09-19T12:55:31;154369.00;;;22.51;47.70
49341;BME280;35209;51.050;13.678;2023-09-19T13:00:40;154340.34;;;22.40;47.48
49341;BME280;35209;51.050;13.678;2023-09-19T13:05:59;154371.59;;;22.52;48.16
49341;BME280;35209;51.050;13.678;2023-09-19T13:11:03;154362.47;;;22.49;47.69
49341;BME280;35209;51.050;13.678;2023-09-19T13:16:08;154460.13;;;22.87;45.87
49341;BME280;35209;51.050;13.678;2023-09-19T13:21:12;154475.81;;;22.93;45.41
49341;BME280;35209;51.050;13.678;2023-09-19T13:26:17;154404.16;;;22.65;45.00
49341;BME280;35209;51.050;13.678;2023-09-19T13:31:20;154358.59;;;22.47;47.76
49341;BME280;35209;51.050;13.678;2023-09-19T13:36:22;154332.56;;;22.37;46.56
49341;BME280;35209;51.050;13.678;2023-09-19T13:41:24;154284.41;;;22.18;47.05
49341;BME280;35209;51.050;13.678;2023-09-19T13:46:26;154313.03;;;22.29;46.63
49341;BME280;35209;51.050;13.678;2023-09-19T13:51:30;154367.72;;;22.51;47.95
49341;BME280;35209;51.050;13.678;2023-09-19T13:56:32;154370.28;;;22.52;45.79
49341;BME280;35209;51.050;13.678;2023-09-19T14:01:35;154342.97;;;22.41;45.65
49341;BME280;35209;51.050;13.678;2023-09-19T14:06:37;154310.44;;;22.28;46.88
49341;BME280;35209;51.050;13.678;2023-09-19T14:11:39;154332.56;;;22.37;46.43
49341;BME280;35209;51.050;13.678;2023-09-19T14:16:41;154298.72;;;22.24;47.30
49341;BME280;35209;51.050;13.678;2023-09-19T14:21:43;154326.03;;;22.34;47.03
49341;BME280;35209;51.050;13.678;2023-09-19T14:26:45;154309.13;;;22.28;47.68
49341;BME280;35209;51.050;13.678;2023-09-19T14:31:47;154283.06;;;22.17;47.93
49341;BME280;35209;51.050;13.678;2023-09-19T14:36:49;154387.25;;;22.58;44.23
49341;BME280;35209;51.050;13.678;2023-09-19T14:41:51;154405.44;;;22.65;43.94
49341;BME280;35209;51.050;13.678;2023-09-19T14:46:53;154404.16;;;22.65;42.53
49341;BME280;35209;51.050;13.678;2023-09-19T14:51:56;154339.03;;;22.39;42.65
49341;BME280;35209;51.050;13.678;2023-09-19T14:56:58;154391.13;;;22.60;40.36
49341;BME280;35209;51.050;13.678;2023-09-19T15:02:06;154356.00;;;22.46;40.79
49341;BME280;35209;51.050;13.678;2023-09-19T15:07:09;154329.97;;;22.36;41.48
49341;BME280;35209;51.050;13.678;2023-09-19T15:12:10;154326.03;;;22.34;39.18
49341;BME280;35209;51.050;13.678;2023-09-19T15:17:15;154264.81;;;22.10;40.40
49341;BME280;35209;51.050;13.678;2023-09-19T15:22:18;154237.47;;;22.00;40.59
49341;BME280;35209;51.050;13.678;2023-09-19T15:27:21;154238.81;;;22.00;41.36
49341;BME280;35209;51.050;13.678;2023-09-19T15:32:23;154175.00;;;21.75;42.45
49341;BME280;35209;51.050;13.678;2023-09-19T15:37:25;154258.28;;;22.08;39.55
49341;BME280;35209;51.050;13.678;2023-09-19T15:42:28;154201.03;;;21.85;40.80
49341;BME280;35209;51.050;13.678;2023-09-19T15:47:29;154210.16;;;21.89;41.12
49341;BME280;35209;51.050;13.678;2023-09-19T15:52:32;154224.44;;;21.95;41.38
49341;BME280;35209;51.050;13.678;2023-09-19T15:57:36;154217.97;;;21.92;40.84
49341;BME280;35209;51.050;13.678;2023-09-19T16:02:38;154202.31;;;21.86;41.30
49341;BME280;35209;51.050;13.678;2023-09-19T16:07:40;154160.72;;;21.70;41.83
49341;BME280;35209;51.050;13.678;2023-09-19T16:12:42;154158.06;;;21.69;41.77
49341;BME280;35209;51.050;13.678;2023-09-19T16:17:44;154121.66;;;21.54;41.35
49341;BME280;35209;51.050;13.678;2023-09-19T16:22:46;154109.94;;;21.50;40.29
49341;BME280;35209;51.050;13.678;2023-09-19T16:27:48;154055.25;;;21.28;41.52
49341;BME280;35209;51.050;13.678;2023-09-19T16:32:50;154004.53;;;21.08;42.70
49341;BME280;35209;51.050;13.678;2023-09-19T16:37:52;154014.94;;;21.12;40.99
49341;BME280;35209;51.050;13.678;2023-09-19T16:42:54;153983.72;;;21.00;41.56
49341;BME280;35209;51.050;13.678;2023-09-19T16:47:56;153947.31;;;20.86;41.30
49341;BME280;35209;51.050;13.678;2023-09-19T16:52:57;153869.28;;;20.55;42.11
49341;BME280;35209;51.050;13.678;2023-09-19T16:57:59;153845.81;;;20.46;42.08
49341;BME280;35209;51.050;13.678;2023-09-19T17:03:01;153822.44;;;20.37;41.08
49341;BME280;35209;51.050;13.678;2023-09-19T17:08:08;153752.19;;;20.09;42.43
49341;BME280;35209;51.050;13.678;2023-09-19T17:13:10;153762.59;;;20.13;41.09
49341;BME280;35209;51.050;13.678;2023-09-19T17:18:12;153722.31;;;19.98;40.86
49341;BME280;35209;51.050;13.678;2023-09-19T17:23:14;153682.00;;;19.82;41.57
49341;BME280;35209;51.050;13.678;2023-09-19T17:28:16;153614.38;;;19.55;40.78
49341;BME280;35209;51.050;13.678;2023-09-19T17:33:18;153583.19;;;19.43;41.59
49341;BME280;35209;51.050;13.678;2023-09-19T17:38:19;153591.00;;;19.46;41.65
49341;BME280;35209;51.050;13.678;2023-09-19T17:43:21;153545.53;;;19.28;41.51
49341;BME280;35209;51.050;13.678;2023-09-19T17:48:23;153540.34;;;19.26;42.14
49341;BME280;35209;51.050;13.678;2023-09-19T17:53:25;153454.59;;;18.93;44.14
49341;BME280;35209;51.050;13.678;2023-09-19T17:58:27;153333.75;;;18.45;45.33
49341;BME280;35209;51.050;13.678;2023-09-19T18:03:29;153259.78;;;18.16;47.63
49341;BME280;35209;51.050;13.678;2023-09-19T18:08:33;153155.94;;;17.75;48.37
49341;BME280;35209;51.050;13.678;2023-09-19T18:13:35;153097.44;;;17.52;49.20
49341;BME280;35209;51.050;13.678;2023-09-19T18:18:37;153065.00;;;17.39;50.67
49341;BME280;35209;51.050;13.678;2023-09-19T18:23:39;153029.97;;;17.26;52.63
49341;BME280;35209;51.050;13.678;2023-09-19T18:28:41;152992.38;;;17.11;52.90
49341;BME280;35209;51.050;13.678;2023-09-19T18:33:46;152959.94;;;16.98;52.55
49341;BME280;35209;51.050;13.678;2023-09-19T18:38:51;152954.75;;;16.96;54.87
49341;BME280;35209;51.050;13.678;2023-09-19T18:43:54;152931.44;;;16.87;55.40
49341;BME280;35209;51.050;13.678;2023-09-19T18:48:57;152884.63;;;16.69;56.63
49341;BME280;35209;51.050;13.678;2023-09-19T18:53:59;152856.13;;;16.57;57.67
49341;BME280;35209;51.050;13.678;2023-09-19T18:59:14;152844.47;;;16.53;57.26
49341;BME280;35209;51.050;13.678;2023-09-19T19:04:17;152805.53;;;16.37;58.38
49341;BME280;35209;51.050;13.678;2023-09-19T19:09:20;152749.78;;;16.15;59.26
49341;BME280;35209;51.050;13.678;2023-09-19T19:14:22;152740.75;;;16.12;60.14
49341;BME280;35209;51.050;13.678;2023-09-19T19:19:25;152723.88;;;16.05;60.32
49341;BME280;35209;51.050;13.678;2023-09-19T19:24:27;152699.25;;;15.96;61.09
49341;BME280;35209;51.050;13.678;2023-09-19T19:29:30;152644.81;;;15.74;63.05
49341;BME280;35209;51.050;13.678;2023-09-19T19:34:32;152639.66;;;15.72;63.43
49341;BME280;35209;51.050;13.678;2023-09-19T19:39:34;152598.09;;;15.56;64.29
49341;BME280;35209;51.050;13.678;2023-09-19T19:44:36;152564.41;;;15.43;64.46
49341;BME280;35209;51.050;13.678;2023-09-19T19:49:38;152547.53;;;15.36;65.37
49341;BME280;35209;51.050;13.678;2023-09-19T19:54:40;152529.44;;;15.29;66.73
49341;BME280;35209;51.050;13.678;2023-09-19T19:59:42;152512.56;;;15.22;67.63
49341;BME280;35209;51.050;13.678;2023-09-19T20:04:44;152511.28;;;15.22;67.68
49341;BME280;35209;51.050;13.678;2023-09-19T20:09:46;152529.44;;;15.29;67.36
49341;BME280;35209;51.050;13.678;2023-09-19T20:14:47;152522.94;;;15.26;67.77
49341;BME280;35209;51.050;13.678;2023-09-19T20:19:50;152493.16;;;15.14;68.66
49341;BME280;35209;51.050;13.678;2023-09-19T20:24:55;152556.63;;;15.39;68.30
49341;BME280;35209;51.050;13.678;2023-09-19T20:29:57;152462.06;;;15.02;69.21
49341;BME280;35209;51.050;13.678;2023-09-19T20:34:58;152497.03;;;15.16;69.61
49341;BME280;35209;51.050;13.678;2023-09-19T20:40:01;152454.28;;;14.99;70.01
49341;BME280;35209;51.050;13.678;2023-09-19T20:45:04;152407.66;;;14.81;70.68
49341;BME280;35209;51.050;13.678;2023-09-19T20:50:07;152399.88;;;14.78;71.18
49341;BME280;35209;51.050;13.678;2023-09-19T20:55:09;152412.81;;;14.83;71.46
49341;BME280;35209;51.050;13.678;2023-09-19T21:00:12;152389.50;;;14.74;71.86
49341;BME280;35209;51.050;13.678;2023-09-19T21:05:15;152339.03;;;14.54;73.61
49341;BME280;35209;51.050;13.678;2023-09-19T21:10:18;152301.44;;;14.39;74.38
49341;BME280;35209;51.050;13.678;2023-09-19T21:15:20;152288.44;;;14.34;74.66
49341;BME280;35209;51.050;13.678;2023-09-19T21:20:22;152272.94;;;14.28;75.02
49341;BME280;35209;51.050;13.678;2023-09-19T21:25:27;152250.91;;;14.19;75.61
49341;BME280;35209;51.050;13.678;2023-09-19T21:30:30;152250.91;;;14.19;75.93
49341;BME280;35209;51.050;13.678;2023-09-19T21:35:32;152252.22;;;14.20;76.66
49341;BME280;35209;51.050;13.678;2023-09-19T21:40:34;152232.78;;;14.12;77.33
49341;BME280;35209;51.050;13.678;2023-09-19T21:45:36;152263.88;;;14.24;77.82
49341;BME280;35209;51.050;13.678;2023-09-19T21:50:38;152275.50;;;14.29;77.67
49341;BME280;35209;51.050;13.678;2023-09-19T21:55:39;152292.38;;;14.35;77.25
49341;BME280;35209;51.050;13.678;2023-09-19T22:00:41;152186.19;;;13.94;78.67
49341;BME280;35209;51.050;13.678;2023-09-19T22:05:51;152169.38;;;13.87;78.85
49341;BME280;35209;51.050;13.678;2023-09-19T22:10:53;152193.97;;;13.97;79.19
49341;BME280;35209;51.050;13.678;2023-09-19T22:15:56;152144.81;;;13.77;79.96
49341;BME280;35209;51.050;13.678;2023-09-19T22:21:00;152125.38;;;13.70;80.89
49341;BME280;35209;51.050;13.678;2023-09-19T22:26:10;152151.25;;;13.80;80.83
49341;BME280;35209;51.050;13.678;2023-09-19T22:31:23;152139.59;;;13.75;80.79
49341;BME280;35209;51.050;13.678;2023-09-19T22:36:28;152077.50;;;13.51;82.79
49341;BME280;35209;51.050;13.678;2023-09-19T22:41:34;152095.59;;;13.58;83.34
49341;BME280;35209;51.050;13.678;2023-09-19T22:46:36;152065.88;;;13.46;83.85
49341;BME280;35209;51.050;13.678;2023-09-19T22:51:42;152081.38;;;13.52;83.93
49341;BME280;35209;51.050;13.678;2023-09-19T22:56:48;152037.38;;;13.35;84.44
49341;BME280;35209;51.050;13.678;2023-09-19T23:01:53;152108.53;;;13.63;83.96
49341;BME280;35209;51.050;13.678;2023-09-19T23:06:55;152098.16;;;13.59;83.67
49341;BME280;35209;51.050;13.678;2023-09-19T23:12:02;152073.59;;;13.49;84.13
49341;BME280;35209;51.050;13.678;2023-09-19T23:17:18;152085.25;;;13.54;84.67
49341;BME280;35209;51.050;13.678;2023-09-19T23:22:24;152047.72;;;13.39;85.28
49341;BME280;35209;51.050;13.678;2023-09-19T23:27:29;151951.91;;;13.01;87.71
49341;BME280;35209;51.050;13.678;2023-09-19T23:32:37;151971.34;;;13.09;88.47
49341;BME280;35209;51.050;13.678;2023-09-19T23:37:39;151950.63;;;13.01;89.46
49341;BME280;35209;51.050;13.678;2023-09-19T23:42:41;151997.19;;;13.19;88.95
49341;BME280;35209;51.050;13.678;2023-09-19T23:47:44;151986.91;;;13.15;90.05
49341;BME280;35209;51.050;13.678;2023-09-19T23:52:48;151954.56;;;13.02;89.85
49341;BME280;35209;51.050;13.678;2023-09-19T23:57:49;151979.13;;;13.12;89.57
